sensor_id;sensor_type;location;lat;lon;timestamp;P1;durP1;ratioP1;P2;durP2;ratioP2
6342;SDS011;3204;42.698;23.298;2023-08-08T00:00:46;1.23;;;1.10;;
6342;SDS011;3204;42.698;23.298;2023-08-08T00:03:13;1.15;;;1.15;;
6342;SDS011;3204;42.698;23.298;2023-08-08T00:05:38;1.10;;;1.10;;
6342;SDS011;3204;42.698;23.298;2023-08-08T00:08:04;1.08;;;1.08;;
6342;SDS011;3204;42.698;23.298;2023-08-08T00:10:29;2.33;;;2.22;;
6342;SDS011;3204;42.698;23.298;2023-08-08T00:12:55;1.55;;;1.45;;
6342;SDS011;3204;42.698;23.298;2023-08-08T00:15:20;1.10;;;1.10;;
6342;SDS011;3204;42.698;23.298;2023-08-08T00:17:46;1.30;;;1.30;;
6342;SDS011;3204;42.698;23.298;2023-08-08T00:20:11;1.40;;;1.40;;
6342;SDS011;3204;42.698;23.298;2023-08-08T00:22:37;1.15;;;1.15;;
6342;SDS011;3204;42.698;23.298;2023-08-08T00:25:03;1.30;;;1.25;;
6342;SDS011;3204;42.698;23.298;2023-08-08T00:27:29;1.38;;;1.38;;
6342;SDS011;3204;42.698;23.298;2023-08-08T00:29:54;1.45;;;1.35;;
6342;SDS011;3204;42.698;23.298;2023-08-08T00:32:20;1.70;;;1.70;;
6342;SDS011;3204;42.698;23.298;2023-08-08T00:34:45;1.70;;;1.60;;
6342;SDS011;3204;42.698;23.298;2023-08-08T00:37:11;2.13;;;1.98;;
6342;SDS011;3204;42.698;23.298;2023-08-08T00:39:36;2.17;;;2.00;;
6342;SDS011;3204;42.698;23.298;2023-08-08T00:42:02;5.72;;;2.10;;
6342;SDS011;3204;42.698;23.298;2023-08-08T00:44:27;2.20;;;2.10;;
6342;SDS011;3204;42.698;23.298;2023-08-08T00:46:53;2.28;;;2.17;;
6342;SDS011;3204;42.698;23.298;2023-08-08T00:49:19;2.75;;;2.60;;
6342;SDS011;3204;42.698;23.298;2023-08-08T00:51:45;3.10;;;3.00;;
6342;SDS011;3204;42.698;23.298;2023-08-08T00:54:12;2.47;;;2.38;;
6342;SDS011;3204;42.698;23.298;2023-08-08T00:56:38;2.10;;;1.90;;
6342;SDS011;3204;42.698;23.298;2023-08-08T00:59:04;2.72;;;1.73;;
6342;SDS011;3204;42.698;23.298;2023-08-08T01:01:29;1.50;;;1.40;;
6342;SDS011;3204;42.698;23.298;2023-08-08T01:03:55;1.75;;;1.65;;
6342;SDS011;3204;42.698;23.298;2023-08-08T01:06:27;2.45;;;2.35;;
6342;SDS011;3204;42.698;23.298;2023-08-08T01:09:00;2.55;;;2.45;;
6342;SDS011;3204;42.698;23.298;2023-08-08T01:11:34;2.40;;;2.05;;
6342;SDS011;3204;42.698;23.298;2023-08-08T01:14:02;2.55;;;2.38;;
6342;SDS011;3204;42.698;23.298;2023-08-08T01:16:30;1.50;;;1.50;;
6342;SDS011;3204;42.698;23.298;2023-08-08T01:18:56;2.30;;;2.20;;
6342;SDS011;3204;42.698;23.298;2023-08-08T01:21:22;2.08;;;1.75;;
6342;SDS011;3204;42.698;23.298;2023-08-08T01:23:53;1.80;;;1.70;;
6342;SDS011;3204;42.698;23.298;2023-08-08T01:26:21;1.30;;;1.30;;
6342;SDS011;3204;42.698;23.298;2023-08-08T01:28:48;1.70;;;1.60;;
6342;SDS011;3204;42.698;23.298;2023-08-08T01:31:17;1.40;;;1.40;;
6342;SDS011;3204;42.698;23.298;2023-08-08T01:33:43;2.47;;;1.38;;
6342;SDS011;3204;42.698;23.298;2023-08-08T01:36:13;1.40;;;1.35;;
6342;SDS011;3204;42.698;23.298;2023-08-08T01:38:47;1.88;;;1.77;;
6342;SDS011;3204;42.698;23.298;2023-08-08T01:41:16;1.77;;;1.70;;
6342;SDS011;3204;42.698;23.298;2023-08-08T01:43:43;1.70;;;1.70;;
6342;SDS011;3204;42.698;23.298;2023-08-08T01:46:09;1.80;;;1.70;;
6342;SDS011;3204;42.698;23.298;2023-08-08T01:48:35;2.08;;;1.98;;
6342;SDS011;3204;42.698;23.298;2023-08-08T01:51:01;2.00;;;1.90;;
6342;SDS011;3204;42.698;23.298;2023-08-08T01:53:28;2.00;;;1.90;;
6342;SDS011;3204;42.698;23.298;2023-08-08T01:55:53;2.00;;;1.90;;
6342;SDS011;3204;42.698;23.298;2023-08-08T01:58:19;2.00;;;1.90;;
6342;SDS011;3204;42.698;23.298;2023-08-08T02:00:44;2.38;;;1.95;;
6342;SDS011;3204;42.698;23.298;2023-08-08T02:03:11;1.48;;;1.42;;
6342;SDS011;3204;42.698;23.298;2023-08-08T02:05:37;2.75;;;2.55;;
6342;SDS011;3204;42.698;23.298;2023-08-08T02:08:02;2.22;;;2.13;;
6342;SDS011;3204;42.698;23.298;2023-08-08T02:10:28;1.80;;;1.70;;
6342;SDS011;3204;42.698;23.298;2023-08-08T02:12:54;1.70;;;1.60;;
6342;SDS011;3204;42.698;23.298;2023-08-08T02:15:19;1.85;;;1.75;;
6342;SDS011;3204;42.698;23.298;2023-08-08T02:17:45;1.40;;;1.40;;
6342;SDS011;3204;42.698;23.298;2023-08-08T02:20:10;1.40;;;1.40;;
6342;SDS011;3204;42.698;23.298;2023-08-08T02:22:37;1.55;;;1.40;;
6342;SDS011;3204;42.698;23.298;2023-08-08T02:25:02;1.48;;;1.48;;
6342;SDS011;3204;42.698;23.298;2023-08-08T02:27:28;1.75;;;1.65;;
6342;SDS011;3204;42.698;23.298;2023-08-08T02:29:54;2.17;;;2.08;;
6342;SDS011;3204;42.698;23.298;2023-08-08T02:32:19;2.00;;;1.85;;
6342;SDS011;3204;42.698;23.298;2023-08-08T02:34:45;1.80;;;1.70;;
6342;SDS011;3204;42.698;23.298;2023-08-08T02:37:10;1.50;;;1.50;;
6342;SDS011;3204;42.698;23.298;2023-08-08T02:39:35;1.90;;;1.80;;
6342;SDS011;3204;42.698;23.298;2023-08-08T02:42:01;2.25;;;2.15;;
6342;SDS011;3204;42.698;23.298;2023-08-08T02:44:27;2.08;;;1.98;;
6342;SDS011;3204;42.698;23.298;2023-08-08T02:46:52;3.58;;;2.35;;
6342;SDS011;3204;42.698;23.298;2023-08-08T02:49:18;2.20;;;2.10;;
6342;SDS011;3204;42.698;23.298;2023-08-08T02:51:44;2.13;;;1.92;;
6342;SDS011;3204;42.698;23.298;2023-08-08T02:54:09;2.08;;;1.98;;
6342;SDS011;3204;42.698;23.298;2023-08-08T02:56:35;2.25;;;2.15;;
6342;SDS011;3204;42.698;23.298;2023-08-08T02:59:00;2.13;;;1.83;;
6342;SDS011;3204;42.698;23.298;2023-08-08T03:01:25;2.33;;;2.22;;
6342;SDS011;3204;42.698;23.298;2023-08-08T03:03:51;2.33;;;2.22;;
6342;SDS011;3204;42.698;23.298;2023-08-08T03:06:17;2.22;;;2.13;;
6342;SDS011;3204;42.698;23.298;2023-08-08T03:08:42;2.60;;;2.50;;
6342;SDS011;3204;42.698;23.298;2023-08-08T03:11:08;2.90;;;2.80;;
6342;SDS011;3204;42.698;23.298;2023-08-08T03:13:33;2.45;;;2.35;;
6342;SDS011;3204;42.698;23.298;2023-08-08T03:15:59;2.53;;;2.42;;
6342;SDS011;3204;42.698;23.298;2023-08-08T03:18:25;2.70;;;2.60;;
6342;SDS011;3204;42.698;23.298;2023-08-08T03:20:51;2.40;;;2.30;;
6342;SDS011;3204;42.698;23.298;2023-08-08T03:23:17;2.95;;;2.85;;
6342;SDS011;3204;42.698;23.298;2023-08-08T03:25:43;3.50;;;3.20;;
6342;SDS011;3204;42.698;23.298;2023-08-08T03:28:08;2.72;;;2.63;;
6342;SDS011;3204;42.698;23.298;2023-08-08T03:30:35;3.17;;;3.08;;
6342;SDS011;3204;42.698;23.298;2023-08-08T03:33:02;3.30;;;3.10;;
6342;SDS011;3204;42.698;23.298;2023-08-08T03:35:27;3.53;;;3.30;;
6342;SDS011;3204;42.698;23.298;2023-08-08T03:37:53;2.97;;;2.88;;
6342;SDS011;3204;42.698;23.298;2023-08-08T03:40:18;4.05;;;3.13;;
6342;SDS011;3204;42.698;23.298;2023-08-08T03:42:44;3.28;;;3.17;;
6342;SDS011;3204;42.698;23.298;2023-08-08T03:45:09;3.72;;;3.58;;
6342;SDS011;3204;42.698;23.298;2023-08-08T03:47:35;3.75;;;3.35;;
6342;SDS011;3204;42.698;23.298;2023-08-08T03:50:00;4.07;;;3.38;;
6342;SDS011;3204;42.698;23.298;2023-08-08T03:52:26;3.67;;;3.38;;
6342;SDS011;3204;42.698;23.298;2023-08-08T03:54:51;4.55;;;3.92;;
6342;SDS011;3204;42.698;23.298;2023-08-08T03:57:17;3.47;;;3.38;;
6342;SDS011;3204;42.698;23.298;2023-08-08T03:59:43;4.35;;;4.03;;
6342;SDS011;3204;42.698;23.298;2023-08-08T04:02:08;4.15;;;3.78;;
6342;SDS011;3204;42.698;23.298;2023-08-08T04:04:34;3.97;;;3.53;;
6342;SDS011;3204;42.698;23.298;2023-08-08T04:06:59;3.83;;;3.60;;
6342;SDS011;3204;42.698;23.298;2023-08-08T04:09:25;4.55;;;4.15;;
6342;SDS011;3204;42.698;23.298;2023-08-08T04:11:50;4.30;;;4.10;;
6342;SDS011;3204;42.698;23.298;2023-08-08T04:14:16;4.55;;;3.88;;
6342;SDS011;3204;42.698;23.298;2023-08-08T04:16:41;4.40;;;4.10;;
6342;SDS011;3204;42.698;23.298;2023-08-08T04:19:07;4.93;;;4.63;;
6342;SDS011;3204;42.698;23.298;2023-08-08T04:21:32;4.65;;;4.45;;
6342;SDS011;3204;42.698;23.298;2023-08-08T04:23:58;4.85;;;4.55;;
6342;SDS011;3204;42.698;23.298;2023-08-08T04:26:24;4.90;;;4.45;;
6342;SDS011;3204;42.698;23.298;2023-08-08T04:28:50;4.75;;;4.40;;
6342;SDS011;3204;42.698;23.298;2023-08-08T04:31:16;4.97;;;4.53;;
6342;SDS011;3204;42.698;23.298;2023-08-08T04:33:41;4.70;;;4.50;;
6342;SDS011;3204;42.698;23.298;2023-08-08T04:36:07;5.72;;;5.32;;
6342;SDS011;3204;42.698;23.298;2023-08-08T04:38:32;4.97;;;4.68;;
6342;SDS011;3204;42.698;23.298;2023-08-08T04:40:58;5.07;;;4.85;;
6342;SDS011;3204;42.698;23.298;2023-08-08T04:43:24;4.75;;;4.55;;
6342;SDS011;3204;42.698;23.298;2023-08-08T04:45:50;5.35;;;5.00;;
6342;SDS011;3204;42.698;23.298;2023-08-08T04:48:16;4.13;;;3.85;;
6342;SDS011;3204;42.698;23.298;2023-08-08T04:50:41;4.38;;;4.18;;
6342;SDS011;3204;42.698;23.298;2023-08-08T04:53:07;11.07;;;4.47;;
6342;SDS011;3204;42.698;23.298;2023-08-08T04:55:32;5.20;;;4.72;;
6342;SDS011;3204;42.698;23.298;2023-08-08T04:57:57;6.95;;;4.68;;
6342;SDS011;3204;42.698;23.298;2023-08-08T05:00:25;4.97;;;4.68;;
6342;SDS011;3204;42.698;23.298;2023-08-08T05:02:51;6.88;;;5.07;;
6342;SDS011;3204;42.698;23.298;2023-08-08T05:05:16;6.60;;;4.40;;
6342;SDS011;3204;42.698;23.298;2023-08-08T05:07:42;4.88;;;4.45;;
6342;SDS011;3204;42.698;23.298;2023-08-08T05:10:07;4.90;;;4.60;;
6342;SDS011;3204;42.698;23.298;2023-08-08T05:12:33;4.85;;;4.40;;
6342;SDS011;3204;42.698;23.298;2023-08-08T05:14:59;4.50;;;4.25;;
6342;SDS011;3204;42.698;23.298;2023-08-08T05:17:24;3.67;;;3.58;;
6342;SDS011;3204;42.698;23.298;2023-08-08T05:19:49;4.20;;;4.00;;
6342;SDS011;3204;42.698;23.298;2023-08-08T05:22:15;4.05;;;3.85;;
6342;SDS011;3204;42.698;23.298;2023-08-08T05:24:40;4.07;;;3.65;;
6342;SDS011;3204;42.698;23.298;2023-08-08T05:27:06;4.30;;;4.10;;
6342;SDS011;3204;42.698;23.298;2023-08-08T05:29:31;4.22;;;4.03;;
6342;SDS011;3204;42.698;23.298;2023-08-08T05:31:57;4.30;;;4.00;;
6342;SDS011;3204;42.698;23.298;2023-08-08T05:34:25;4.63;;;4.20;;
6342;SDS011;3204;42.698;23.298;2023-08-08T05:36:50;3.88;;;3.67;;
6342;SDS011;3204;42.698;23.298;2023-08-08T05:39:16;4.93;;;4.43;;
6342;SDS011;3204;42.698;23.298;2023-08-08T05:41:41;4.43;;;3.97;;
6342;SDS011;3204;42.698;23.298;2023-08-08T05:44:07;4.05;;;3.85;;
6342;SDS011;3204;42.698;23.298;2023-08-08T05:46:32;4.10;;;3.90;;
6342;SDS011;3204;42.698;23.298;2023-08-08T05:48:57;4.20;;;3.90;;
6342;SDS011;3204;42.698;23.298;2023-08-08T05:51:23;4.72;;;3.70;;
6342;SDS011;3204;42.698;23.298;2023-08-08T05:53:48;4.55;;;3.90;;
6342;SDS011;3204;42.698;23.298;2023-08-08T05:56:14;3.88;;;3.70;;
6342;SDS011;3204;42.698;23.298;2023-08-08T05:58:39;4.30;;;3.90;;
6342;SDS011;3204;42.698;23.298;2023-08-08T06:01:05;4.47;;;4.18;;
6342;SDS011;3204;42.698;23.298;2023-08-08T06:03:34;5.03;;;4.57;;
6342;SDS011;3204;42.698;23.298;2023-08-08T06:06:02;4.05;;;3.85;;
6342;SDS011;3204;42.698;23.298;2023-08-08T06:08:28;4.47;;;4.28;;
6342;SDS011;3204;42.698;23.298;2023-08-08T06:10:53;4.10;;;3.88;;
6342;SDS011;3204;42.698;23.298;2023-08-08T06:13:19;3.97;;;3.67;;
6342;SDS011;3204;42.698;23.298;2023-08-08T06:15:44;4.13;;;3.95;;
6342;SDS011;3204;42.698;23.298;2023-08-08T06:18:10;4.30;;;4.10;;
6342;SDS011;3204;42.698;23.298;2023-08-08T06:20:35;4.00;;;3.80;;
6342;SDS011;3204;42.698;23.298;2023-08-08T06:23:01;4.22;;;3.88;;
6342;SDS011;3204;42.698;23.298;2023-08-08T06:25:27;4.63;;;3.78;;
6342;SDS011;3204;42.698;23.298;2023-08-08T06:27:53;4.20;;;3.90;;
6342;SDS011;3204;42.698;23.298;2023-08-08T06:30:18;4.10;;;3.80;;
6342;SDS011;3204;42.698;23.298;2023-08-08T06:32:44;4.15;;;3.95;;
6342;SDS011;3204;42.698;23.298;2023-08-08T06:35:10;4.18;;;3.97;;
6342;SDS011;3204;42.698;23.298;2023-08-08T06:37:35;4.07;;;3.70;;
6342;SDS011;3204;42.698;23.298;2023-08-08T06:40:01;5.18;;;4.65;;
6342;SDS011;3204;42.698;23.298;2023-08-08T06:42:26;4.28;;;4.03;;
6342;SDS011;3204;42.698;23.298;2023-08-08T06:44:52;4.13;;;3.83;;
6342;SDS011;3204;42.698;23.298;2023-08-08T06:47:17;7.07;;;3.25;;
6342;SDS011;3204;42.698;23.298;2023-08-08T06:49:43;3.85;;;3.00;;
6342;SDS011;3204;42.698;23.298;2023-08-08T06:52:08;3.25;;;2.58;;
6342;SDS011;3204;42.698;23.298;2023-08-08T06:54:34;4.53;;;2.70;;
6342;SDS011;3204;42.698;23.298;2023-08-08T06:56:59;2.40;;;2.30;;
6342;SDS011;3204;42.698;23.298;2023-08-08T06:59:26;2.92;;;2.78;;
6342;SDS011;3204;42.698;23.298;2023-08-08T07:01:53;2.50;;;2.40;;
6342;SDS011;3204;42.698;23.298;2023-08-08T07:04:18;3.08;;;2.45;;
6342;SDS011;3204;42.698;23.298;2023-08-08T07:06:44;2.85;;;2.60;;
6342;SDS011;3204;42.698;23.298;2023-08-08T07:09:10;2.55;;;2.35;;
6342;SDS011;3204;42.698;23.298;2023-08-08T07:11:36;2.40;;;2.20;;
6342;SDS011;3204;42.698;23.298;2023-08-08T07:14:02;2.60;;;2.50;;
6342;SDS011;3204;42.698;23.298;2023-08-08T07:16:27;2.53;;;2.33;;
6342;SDS011;3204;42.698;23.298;2023-08-08T07:18:53;2.78;;;2.50;;
6342;SDS011;3204;42.698;23.298;2023-08-08T07:21:18;2.85;;;2.20;;
6342;SDS011;3204;42.698;23.298;2023-08-08T07:23:44;2.35;;;2.25;;
6342;SDS011;3204;42.698;23.298;2023-08-08T07:26:09;2.75;;;2.40;;
6342;SDS011;3204;42.698;23.298;2023-08-08T07:28:35;2.47;;;2.20;;
6342;SDS011;3204;42.698;23.298;2023-08-08T07:31:04;2.22;;;1.95;;
6342;SDS011;3204;42.698;23.298;2023-08-08T07:33:30;2.50;;;2.22;;
6342;SDS011;3204;42.698;23.298;2023-08-08T07:35:56;2.20;;;2.10;;
6342;SDS011;3204;42.698;23.298;2023-08-08T07:38:21;2.45;;;1.95;;
6342;SDS011;3204;42.698;23.298;2023-08-08T07:40:47;1.80;;;1.70;;
6342;SDS011;3204;42.698;23.298;2023-08-08T07:43:13;1.90;;;1.90;;
6342;SDS011;3204;42.698;23.298;2023-08-08T07:45:39;2.35;;;1.90;;
6342;SDS011;3204;42.698;23.298;2023-08-08T07:48:05;1.90;;;1.80;;
6342;SDS011;3204;42.698;23.298;2023-08-08T07:50:30;1.90;;;1.80;;
6342;SDS011;3204;42.698;23.298;2023-08-08T07:52:56;1.58;;;1.48;;
6342;SDS011;3204;42.698;23.298;2023-08-08T07:55:22;2.20;;;2.00;;
6342;SDS011;3204;42.698;23.298;2023-08-08T07:57:47;1.92;;;1.60;;
6342;SDS011;3204;42.698;23.298;2023-08-08T08:00:13;1.58;;;1.58;;
6342;SDS011;3204;42.698;23.298;2023-08-08T08:02:39;1.40;;;1.40;;
6342;SDS011;3204;42.698;23.298;2023-08-08T08:05:06;3.70;;;2.05;;
6342;SDS011;3204;42.698;23.298;2023-08-08T08:07:33;1.58;;;1.48;;
6342;SDS011;3204;42.698;23.298;2023-08-08T08:10:00;1.90;;;1.80;;
6342;SDS011;3204;42.698;23.298;2023-08-08T08:12:27;1.60;;;1.50;;
6342;SDS011;3204;42.698;23.298;2023-08-08T08:14:52;1.40;;;1.40;;
6342;SDS011;3204;42.698;23.298;2023-08-08T08:17:18;1.52;;;1.42;;
6342;SDS011;3204;42.698;23.298;2023-08-08T08:19:43;1.83;;;1.73;;
6342;SDS011;3204;42.698;23.298;2023-08-08T08:22:09;1.70;;;1.60;;
6342;SDS011;3204;42.698;23.298;2023-08-08T08:24:34;1.60;;;1.40;;
6342;SDS011;3204;42.698;23.298;2023-08-08T08:27:00;1.90;;;1.80;;
6342;SDS011;3204;42.698;23.298;2023-08-08T08:29:25;1.90;;;1.80;;
6342;SDS011;3204;42.698;23.298;2023-08-08T08:31:51;3.25;;;1.92;;
6342;SDS011;3204;42.698;23.298;2023-08-08T08:34:16;1.65;;;1.55;;
6342;SDS011;3204;42.698;23.298;2023-08-08T08:36:42;1.55;;;1.48;;
6342;SDS011;3204;42.698;23.298;2023-08-08T08:39:07;2.35;;;1.77;;
6342;SDS011;3204;42.698;23.298;2023-08-08T08:41:33;2.15;;;1.90;;
6342;SDS011;3204;42.698;23.298;2023-08-08T08:44:02;1.60;;;1.60;;
6342;SDS011;3204;42.698;23.298;2023-08-08T08:46:29;2.17;;;2.08;;
6342;SDS011;3204;42.698;23.298;2023-08-08T08:48:55;2.53;;;2.40;;
6342;SDS011;3204;42.698;23.298;2023-08-08T08:51:24;3.42;;;2.38;;
6342;SDS011;3204;42.698;23.298;2023-08-08T08:53:51;1.90;;;1.80;;
6342;SDS011;3204;42.698;23.298;2023-08-08T08:56:16;1.90;;;1.80;;
6342;SDS011;3204;42.698;23.298;2023-08-08T08:58:43;2.10;;;2.00;;
6342;SDS011;3204;42.698;23.298;2023-08-08T09:01:09;1.60;;;1.58;;
6342;SDS011;3204;42.698;23.298;2023-08-08T09:03:35;2.10;;;2.00;;
6342;SDS011;3204;42.698;23.298;2023-08-08T09:06:01;2.03;;;1.90;;
6342;SDS011;3204;42.698;23.298;2023-08-08T09:08:29;2.92;;;2.00;;
6342;SDS011;3204;42.698;23.298;2023-08-08T09:10:55;1.83;;;1.73;;
6342;SDS011;3204;42.698;23.298;2023-08-08T09:13:21;1.70;;;1.60;;
6342;SDS011;3204;42.698;23.298;2023-08-08T09:15:48;1.60;;;1.60;;
6342;SDS011;3204;42.698;23.298;2023-08-08T09:18:16;3.08;;;1.67;;
6342;SDS011;3204;42.698;23.298;2023-08-08T09:20:45;1.70;;;1.60;;
6342;SDS011;3204;42.698;23.298;2023-08-08T09:23:13;1.73;;;1.67;;
6342;SDS011;3204;42.698;23.298;2023-08-08T09:25:38;2.08;;;1.98;;
6342;SDS011;3204;42.698;23.298;2023-08-08T09:28:04;1.83;;;1.73;;
6342;SDS011;3204;42.698;23.298;2023-08-08T09:30:30;4.18;;;1.90;;
6342;SDS011;3204;42.698;23.298;2023-08-08T09:32:58;1.95;;;1.85;;
6342;SDS011;3204;42.698;23.298;2023-08-08T09:35:24;1.60;;;1.60;;
6342;SDS011;3204;42.698;23.298;2023-08-08T09:37:51;2.10;;;2.00;;
6342;SDS011;3204;42.698;23.298;2023-08-08T09:40:18;3.95;;;2.00;;
6342;SDS011;3204;42.698;23.298;2023-08-08T09:42:46;2.03;;;1.92;;
6342;SDS011;3204;42.698;23.298;2023-08-08T09:45:12;2.33;;;1.77;;
6342;SDS011;3204;42.698;23.298;2023-08-08T09:47:38;2.58;;;1.90;;
6342;SDS011;3204;42.698;23.298;2023-08-08T09:50:04;1.70;;;1.70;;
6342;SDS011;3204;42.698;23.298;2023-08-08T09:52:30;2.40;;;2.30;;
6342;SDS011;3204;42.698;23.298;2023-08-08T09:54:56;2.17;;;2.08;;
6342;SDS011;3204;42.698;23.298;2023-08-08T09:57:23;1.95;;;1.83;;
6342;SDS011;3204;42.698;23.298;2023-08-08T09:59:50;3.38;;;2.10;;
6342;SDS011;3204;42.698;23.298;2023-08-08T10:02:16;2.50;;;2.00;;
6342;SDS011;3204;42.698;23.298;2023-08-08T10:04:43;1.60;;;1.58;;
6342;SDS011;3204;42.698;23.298;2023-08-08T10:07:09;2.00;;;2.00;;
6342;SDS011;3204;42.698;23.298;2023-08-08T10:09:35;2.40;;;2.00;;
6342;SDS011;3204;42.698;23.298;2023-08-08T10:12:02;2.20;;;2.10;;
6342;SDS011;3204;42.698;23.298;2023-08-08T10:14:30;1.92;;;1.83;;
6342;SDS011;3204;42.698;23.298;2023-08-08T10:16:56;2.15;;;2.05;;
6342;SDS011;3204;42.698;23.298;2023-08-08T10:19:22;4.00;;;1.90;;
6342;SDS011;3204;42.698;23.298;2023-08-08T10:21:54;1.85;;;1.85;;
6342;SDS011;3204;42.698;23.298;2023-08-08T10:24:22;1.90;;;1.80;;
6342;SDS011;3204;42.698;23.298;2023-08-08T10:26:51;1.90;;;1.90;;
6342;SDS011;3204;42.698;23.298;2023-08-08T10:29:25;2.00;;;1.90;;
6342;SDS011;3204;42.698;23.298;2023-08-08T10:31:53;2.00;;;1.90;;
6342;SDS011;3204;42.698;23.298;2023-08-08T10:34:26;2.60;;;2.50;;
6342;SDS011;3204;42.698;23.298;2023-08-08T10:37:03;3.70;;;2.13;;
6342;SDS011;3204;42.698;23.298;2023-08-08T10:39:30;2.45;;;2.03;;
6342;SDS011;3204;42.698;23.298;2023-08-08T10:41:59;3.10;;;2.10;;
6342;SDS011;3204;42.698;23.298;2023-08-08T10:44:27;1.42;;;1.42;;
6342;SDS011;3204;42.698;23.298;2023-08-08T10:46:53;1.88;;;1.77;;
6342;SDS011;3204;42.698;23.298;2023-08-08T10:49:19;1.95;;;1.85;;
6342;SDS011;3204;42.698;23.298;2023-08-08T10:51:46;1.90;;;1.80;;
6342;SDS011;3204;42.698;23.298;2023-08-08T10:54:24;1.90;;;1.80;;
6342;SDS011;3204;42.698;23.298;2023-08-08T10:56:56;1.70;;;1.70;;
6342;SDS011;3204;42.698;23.298;2023-08-08T10:59:26;1.40;;;1.30;;
6342;SDS011;3204;42.698;23.298;2023-08-08T11:01:54;1.35;;;1.35;;
6342;SDS011;3204;42.698;23.298;2023-08-08T11:04:22;2.05;;;1.40;;
6342;SDS011;3204;42.698;23.298;2023-08-08T11:06:52;1.30;;;1.30;;
6342;SDS011;3204;42.698;23.298;2023-08-08T11:09:19;1.63;;;1.50;;
6342;SDS011;3204;42.698;23.298;2023-08-08T11:11:44;1.20;;;1.20;;
6342;SDS011;3204;42.698;23.298;2023-08-08T11:14:12;1.35;;;1.35;;
6342;SDS011;3204;42.698;23.298;2023-08-08T11:16:38;1.50;;;1.40;;
6342;SDS011;3204;42.698;23.298;2023-08-08T11:19:04;1.40;;;1.30;;
6342;SDS011;3204;42.698;23.298;2023-08-08T11:21:33;2.78;;;1.30;;
6342;SDS011;3204;42.698;23.298;2023-08-08T11:24:00;1.02;;;1.02;;
6342;SDS011;3204;42.698;23.298;2023-08-08T11:26:26;1.70;;;1.60;;
6342;SDS011;3204;42.698;23.298;2023-08-08T11:28:52;1.30;;;1.30;;
6342;SDS011;3204;42.698;23.298;2023-08-08T11:31:21;1.30;;;1.00;;
6342;SDS011;3204;42.698;23.298;2023-08-08T11:33:47;2.03;;;1.40;;
6342;SDS011;3204;42.698;23.298;2023-08-08T11:36:14;1.48;;;1.38;;
6342;SDS011;3204;42.698;23.298;2023-08-08T11:38:40;1.52;;;1.42;;
6342;SDS011;3204;42.698;23.298;2023-08-08T11:41:08;1.83;;;1.50;;
6342;SDS011;3204;42.698;23.298;2023-08-08T11:43:35;1.50;;;1.42;;
6342;SDS011;3204;42.698;23.298;2023-08-08T11:46:02;1.60;;;1.50;;
6342;SDS011;3204;42.698;23.298;2023-08-08T11:48:28;1.30;;;1.30;;
6342;SDS011;3204;42.698;23.298;2023-08-08T11:50:53;1.42;;;1.08;;
6342;SDS011;3204;42.698;23.298;2023-08-08T11:53:19;1.30;;;1.30;;
6342;SDS011;3204;42.698;23.298;2023-08-08T11:55:45;1.20;;;1.20;;
6342;SDS011;3204;42.698;23.298;2023-08-08T11:58:14;1.20;;;1.20;;
6342;SDS011;3204;42.698;23.298;2023-08-08T12:00:42;1.70;;;1.60;;
6342;SDS011;3204;42.698;23.298;2023-08-08T12:03:10;1.40;;;1.40;;
6342;SDS011;3204;42.698;23.298;2023-08-08T12:05:39;1.40;;;1.40;;
6342;SDS011;3204;42.698;23.298;2023-08-08T12:08:05;1.35;;;1.35;;
6342;SDS011;3204;42.698;23.298;2023-08-08T12:10:31;2.50;;;1.13;;
6342;SDS011;3204;42.698;23.298;2023-08-08T12:12:57;1.40;;;1.30;;
6342;SDS011;3204;42.698;23.298;2023-08-08T12:15:34;1.27;;;1.27;;
6342;SDS011;3204;42.698;23.298;2023-08-08T12:18:01;1.40;;;1.40;;
6342;SDS011;3204;42.698;23.298;2023-08-08T12:20:28;1.13;;;1.13;;
6342;SDS011;3204;42.698;23.298;2023-08-08T12:22:57;1.38;;;1.38;;
6342;SDS011;3204;42.698;23.298;2023-08-08T12:25:24;1.20;;;1.20;;
6342;SDS011;3204;42.698;23.298;2023-08-08T12:27:49;1.70;;;1.60;;
6342;SDS011;3204;42.698;23.298;2023-08-08T12:30:15;1.42;;;1.30;;
6342;SDS011;3204;42.698;23.298;2023-08-08T12:32:40;1.17;;;1.17;;
6342;SDS011;3204;42.698;23.298;2023-08-08T12:35:06;2.55;;;1.23;;
6342;SDS011;3204;42.698;23.298;2023-08-08T12:37:32;1.27;;;1.27;;
6342;SDS011;3204;42.698;23.298;2023-08-08T12:39:58;1.42;;;1.30;;
6342;SDS011;3204;42.698;23.298;2023-08-08T12:42:23;1.65;;;1.55;;
6342;SDS011;3204;42.698;23.298;2023-08-08T12:44:49;1.20;;;1.20;;
6342;SDS011;3204;42.698;23.298;2023-08-08T12:47:17;1.20;;;1.20;;
6342;SDS011;3204;42.698;23.298;2023-08-08T12:49:44;1.77;;;1.67;;
6342;SDS011;3204;42.698;23.298;2023-08-08T12:52:09;4.18;;;1.60;;
6342;SDS011;3204;42.698;23.298;2023-08-08T12:54:34;1.40;;;1.40;;
6342;SDS011;3204;42.698;23.298;2023-08-08T12:57:01;1.60;;;1.30;;
6342;SDS011;3204;42.698;23.298;2023-08-08T12:59:26;1.30;;;1.20;;
6342;SDS011;3204;42.698;23.298;2023-08-08T13:01:52;1.85;;;1.75;;
6342;SDS011;3204;42.698;23.298;2023-08-08T13:04:17;1.63;;;1.25;;
6342;SDS011;3204;42.698;23.298;2023-08-08T13:06:43;1.70;;;1.70;;
6342;SDS011;3204;42.698;23.298;2023-08-08T13:09:09;1.75;;;1.33;;
6342;SDS011;3204;42.698;23.298;2023-08-08T13:11:35;1.92;;;1.10;;
6342;SDS011;3204;42.698;23.298;2023-08-08T13:14:00;1.60;;;1.20;;
6342;SDS011;3204;42.698;23.298;2023-08-08T13:16:26;1.55;;;1.33;;
6342;SDS011;3204;42.698;23.298;2023-08-08T13:18:51;1.92;;;1.23;;
6342;SDS011;3204;42.698;23.298;2023-08-08T13:21:17;1.58;;;1.48;;
6342;SDS011;3204;42.698;23.298;2023-08-08T13:23:42;1.30;;;1.30;;
6342;SDS011;3204;42.698;23.298;2023-08-08T13:26:08;1.38;;;1.25;;
6342;SDS011;3204;42.698;23.298;2023-08-08T13:28:33;1.55;;;1.42;;
6342;SDS011;3204;42.698;23.298;2023-08-08T13:30:59;1.42;;;1.30;;
6342;SDS011;3204;42.698;23.298;2023-08-08T13:33:25;1.60;;;1.50;;
6342;SDS011;3204;42.698;23.298;2023-08-08T13:35:51;2.45;;;1.60;;
6342;SDS011;3204;42.698;23.298;2023-08-08T13:38:16;1.50;;;1.40;;
6342;SDS011;3204;42.698;23.298;2023-08-08T13:40:42;1.40;;;1.30;;
6342;SDS011;3204;42.698;23.298;2023-08-08T13:43:07;1.63;;;1.20;;
6342;SDS011;3204;42.698;23.298;2023-08-08T13:45:33;2.25;;;1.27;;
6342;SDS011;3204;42.698;23.298;2023-08-08T13:47:59;1.30;;;1.30;;
6342;SDS011;3204;42.698;23.298;2023-08-08T13:50:24;1.02;;;1.02;;
6342;SDS011;3204;42.698;23.298;2023-08-08T13:52:50;1.38;;;1.38;;
6342;SDS011;3204;42.698;23.298;2023-08-08T13:55:17;2.67;;;1.50;;
6342;SDS011;3204;42.698;23.298;2023-08-08T13:57:43;1.58;;;1.35;;
6342;SDS011;3204;42.698;23.298;2023-08-08T14:00:09;1.45;;;1.35;;
6342;SDS011;3204;42.698;23.298;2023-08-08T14:02:37;2.15;;;1.42;;
6342;SDS011;3204;42.698;23.298;2023-08-08T14:05:02;1.65;;;1.55;;
6342;SDS011;3204;42.698;23.298;2023-08-08T14:07:31;1.42;;;1.40;;
6342;SDS011;3204;42.698;23.298;2023-08-08T14:09:58;1.50;;;1.40;;
6342;SDS011;3204;42.698;23.298;2023-08-08T14:12:23;1.63;;;1.52;;
6342;SDS011;3204;42.698;23.298;2023-08-08T14:14:49;1.60;;;1.52;;
6342;SDS011;3204;42.698;23.298;2023-08-08T14:17:14;1.52;;;1.42;;
6342;SDS011;3204;42.698;23.298;2023-08-08T14:19:40;1.65;;;1.40;;
6342;SDS011;3204;42.698;23.298;2023-08-08T14:22:05;1.48;;;1.40;;
6342;SDS011;3204;42.698;23.298;2023-08-08T14:24:31;1.42;;;1.33;;
6342;SDS011;3204;42.698;23.298;2023-08-08T14:26:56;1.52;;;1.42;;
6342;SDS011;3204;42.698;23.298;2023-08-08T14:29:21;2.72;;;1.40;;
6342;SDS011;3204;42.698;23.298;2023-08-08T14:31:47;4.20;;;1.83;;
6342;SDS011;3204;42.698;23.298;2023-08-08T14:34:14;2.15;;;1.30;;
6342;SDS011;3204;42.698;23.298;2023-08-08T14:36:40;1.63;;;1.30;;
6342;SDS011;3204;42.698;23.298;2023-08-08T14:39:06;2.38;;;1.50;;
6342;SDS011;3204;42.698;23.298;2023-08-08T14:41:32;1.90;;;1.80;;
6342;SDS011;3204;42.698;23.298;2023-08-08T14:43:57;1.42;;;1.38;;
6342;SDS011;3204;42.698;23.298;2023-08-08T14:46:23;1.30;;;1.20;;
6342;SDS011;3204;42.698;23.298;2023-08-08T14:48:49;3.08;;;1.35;;
6342;SDS011;3204;42.698;23.298;2023-08-08T14:51:14;1.55;;;1.30;;
6342;SDS011;3204;42.698;23.298;2023-08-08T14:53:42;1.30;;;1.30;;